createdAt,value
2023-06-20T00:01:16.538Z,5.90
2023-06-20T00:07:20.012Z,5.97
2023-06-20T00:10:07.725Z,7.35
2023-06-20T00:12:54.885Z,6.13
2023-06-20T00:15:42.775Z,5.32
2023-06-20T00:18:30.609Z,6.15
2023-06-20T00:21:17.837Z,5.47
2023-06-20T00:27:28.975Z,5.72
2023-06-20T00:30:16.700Z,5.90
2023-06-20T00:39:55.739Z,5.80
2023-06-20T00:42:42.923Z,8.45
2023-06-20T00:45:33.678Z,7.07
2023-06-20T00:48:21.473Z,7.65
2023-06-20T00:51:08.657Z,8.23
2023-06-20T00:53:57.762Z,6.47
2023-06-20T00:56:45.806Z,8.63
2023-06-20T00:59:32.985Z,8.88
2023-06-20T01:02:21.610Z,6.35
2023-06-20T01:05:09.324Z,7.65
2023-06-20T01:08:16.258Z,6.82
2023-06-20T01:11:06.737Z,5.68
2023-06-20T01:13:59.911Z,9.35
2023-06-20T01:17:06.742Z,11.50
2023-06-20T01:20:11.022Z,8.18
2023-06-20T01:23:11.958Z,10.40
2023-06-20T01:28:52.987Z,12.87
2023-06-20T01:31:47.935Z,11.80
2023-06-20T01:34:40.707Z,13.85
2023-06-20T01:37:33.018Z,16.52
2023-06-20T01:40:23.114Z,12.65
2023-06-20T01:43:12.897Z,12.90
2023-06-20T01:46:03.348Z,17.27
2023-06-20T01:48:51.720Z,13.98
2023-06-20T01:51:39.963Z,16.55
2023-06-20T01:54:30.346Z,16.20
2023-06-20T01:57:18.843Z,13.75
2023-06-20T02:00:10.447Z,11.88
2023-06-20T02:03:02.232Z,13.65
2023-06-20T02:05:49.702Z,17.15
2023-06-20T02:08:39.189Z,15.32
2023-06-20T02:11:27.765Z,17.23
2023-06-20T02:14:15.363Z,17.50
2023-06-20T02:17:05.321Z,18.23
2023-06-20T02:19:52.794Z,20.58
2023-06-20T02:22:44.224Z,19.00
2023-06-20T02:25:35.881Z,20.35
2023-06-20T02:28:27.426Z,17.83
2023-06-20T02:31:23.775Z,18.98
2023-06-20T02:34:15.008Z,15.88
2023-06-20T02:37:05.829Z,13.18
2023-06-20T02:39:54.428Z,18.08
2023-06-20T02:42:43.015Z,13.68
2023-06-20T02:45:31.764Z,15.30
2023-06-20T02:48:25.293Z,11.50
2023-06-20T02:51:19.497Z,12.35
2023-06-20T02:54:12.849Z,13.02
2023-06-20T02:57:03.535Z,13.63
2023-06-20T02:59:57.173Z,14.40
2023-06-20T03:02:52.949Z,14.13
2023-06-20T03:05:45.545Z,14.57
2023-06-20T03:08:34.114Z,10.63
2023-06-20T03:11:22.608Z,12.55
2023-06-20T03:14:13.975Z,10.73
2023-06-20T03:17:01.639Z,10.30
2023-06-20T03:19:51.247Z,12.38
2023-06-20T03:22:41.079Z,10.63
2023-06-20T03:25:30.028Z,9.70
2023-06-20T03:28:17.345Z,8.93
2023-06-20T03:31:10.117Z,12.35
2023-06-20T03:33:57.476Z,9.98
2023-06-20T03:36:45.146Z,11.43
2023-06-20T03:39:32.426Z,8.75
2023-06-20T03:42:20.055Z,9.10
2023-06-20T03:45:09.693Z,9.52
2023-06-20T03:47:58.716Z,10.63
2023-06-20T03:50:45.985Z,10.68
2023-06-20T03:53:35.056Z,9.85
2023-06-20T03:56:23.188Z,9.10
2023-06-20T03:59:10.390Z,8.02
2023-06-20T04:01:57.762Z,9.55
2023-06-20T04:04:50.928Z,9.20
2023-06-20T04:07:43.056Z,8.18
2023-06-20T04:10:30.376Z,8.82
2023-06-20T04:13:17.529Z,8.93
2023-06-20T04:16:05.402Z,9.93
2023-06-20T04:18:52.613Z,8.27
2023-06-20T04:21:43.661Z,8.45
2023-06-20T04:24:30.924Z,8.63
2023-06-20T04:27:18.185Z,7.30
2023-06-20T04:30:06.850Z,5.35
2023-06-20T04:32:55.239Z,9.27
2023-06-20T04:35:42.786Z,5.65
2023-06-20T04:38:33.429Z,5.65
2023-06-20T04:41:20.773Z,4.80
2023-06-20T04:44:08.302Z,5.60
2023-06-20T04:46:57.177Z,5.15
2023-06-20T04:49:44.690Z,8.20
2023-06-20T04:52:32.394Z,3.97
2023-06-20T04:55:22.101Z,6.00
2023-06-20T04:58:09.390Z,6.45
2023-06-20T05:00:57.928Z,6.10
2023-06-20T05:03:48.231Z,4.57
2023-06-20T05:06:36.831Z,6.93
2023-06-20T05:09:24.493Z,5.65
2023-06-20T05:12:11.794Z,4.68
2023-06-20T05:14:59.102Z,4.53
2023-06-20T05:17:46.331Z,5.50
2023-06-20T05:20:33.621Z,5.88
2023-06-20T05:23:21.052Z,5.00
2023-06-20T05:26:08.383Z,4.78
2023-06-20T05:28:55.608Z,4.50
2023-06-20T05:31:43.270Z,4.07
2023-06-20T05:34:30.567Z,3.88
2023-06-20T05:37:17.773Z,5.03
2023-06-20T05:40:08.223Z,4.57
2023-06-20T05:42:55.421Z,4.88
2023-06-20T05:45:44.642Z,4.10
2023-06-20T05:48:33.787Z,6.10
2023-06-20T05:51:21.035Z,4.82
2023-06-20T05:54:08.544Z,3.50
2023-06-20T05:56:56.746Z,5.93
2023-06-20T05:59:43.969Z,3.88
2023-06-20T06:02:31.167Z,4.40
2023-06-20T06:05:18.456Z,3.55
2023-06-20T06:08:06.157Z,3.78
2023-06-20T06:10:53.459Z,5.63
2023-06-20T06:13:41.267Z,4.95
2023-06-20T06:16:28.534Z,4.53
2023-06-20T06:19:16.173Z,5.05
2023-06-20T06:22:04.097Z,5.38
2023-06-20T06:24:52.213Z,4.95
2023-06-20T06:27:39.364Z,5.38
2023-06-20T06:30:26.902Z,6.10
2023-06-20T06:33:15.064Z,6.00
2023-06-20T06:36:02.515Z,6.10
2023-06-20T06:38:50.069Z,6.43
2023-06-20T06:41:37.425Z,6.00
2023-06-20T06:44:25.636Z,6.25
2023-06-20T06:47:16.129Z,5.45
2023-06-20T06:50:03.964Z,5.45
2023-06-20T06:52:51.207Z,5.72
2023-06-20T06:55:38.738Z,5.28
2023-06-20T06:58:26.142Z,7.03
2023-06-20T07:01:13.468Z,5.38
2023-06-20T07:04:00.831Z,6.18
2023-06-20T07:06:48.376Z,5.55
2023-06-20T07:09:37.580Z,7.70
2023-06-20T07:12:24.872Z,6.00
2023-06-20T07:15:12.119Z,5.55
2023-06-20T07:17:59.516Z,6.63
2023-06-20T07:20:46.831Z,6.95
2023-06-20T07:23:34.360Z,6.40
2023-06-20T07:26:21.788Z,7.50
2023-06-20T07:29:09.066Z,7.70
2023-06-20T07:31:56.422Z,8.95
2023-06-20T07:34:44.302Z,5.95
2023-06-20T07:37:31.592Z,5.75
2023-06-20T07:40:19.239Z,6.82
2023-06-20T07:43:07.252Z,6.03
2023-06-20T07:45:54.583Z,6.95
2023-06-20T07:48:42.117Z,6.63
2023-06-20T07:51:32.435Z,7.40
2023-06-20T07:54:19.733Z,7.97
2023-06-20T07:57:07.396Z,7.25
2023-06-20T07:59:55.315Z,6.63
2023-06-20T08:02:42.689Z,6.70
2023-06-20T08:05:30.119Z,8.48
2023-06-20T08:08:17.445Z,5.15
2023-06-20T08:11:05.196Z,8.35
2023-06-20T08:13:52.924Z,6.43
2023-06-20T08:16:40.364Z,8.07
2023-06-20T08:19:27.943Z,7.32
2023-06-20T08:22:15.517Z,5.35
2023-06-20T08:25:04.341Z,7.15
2023-06-20T08:27:56.267Z,7.53
2023-06-20T08:30:54.392Z,6.63
2023-06-20T08:33:43.624Z,7.28
2023-06-20T08:36:31.413Z,6.68
2023-06-20T08:39:19.645Z,6.47
2023-06-20T08:42:07.243Z,8.35
2023-06-20T08:44:58.856Z,10.25
2023-06-20T08:47:46.307Z,9.00
2023-06-20T08:50:33.925Z,10.77
2023-06-20T08:53:24.719Z,9.75
2023-06-20T08:56:12.826Z,8.13
2023-06-20T08:58:59.953Z,7.75
2023-06-20T09:01:47.834Z,8.45
2023-06-20T09:04:35.015Z,6.85
2023-06-20T09:07:23.626Z,7.75
2023-06-20T09:10:12.993Z,9.25
2023-06-20T09:13:00.236Z,6.80
2023-06-20T09:15:47.900Z,7.93
2023-06-20T09:18:36.268Z,8.00
2023-06-20T09:21:24.889Z,7.40
2023-06-20T09:24:12.137Z,7.03
2023-06-20T09:27:03.426Z,6.93
2023-06-20T09:29:52.626Z,8.63
2023-06-20T09:32:41.723Z,8.00
2023-06-20T09:35:31.340Z,7.13
2023-06-20T09:38:18.921Z,9.65
2023-06-20T09:41:08.213Z,8.13
2023-06-20T09:43:55.465Z,7.63
2023-06-20T09:46:43.194Z,7.38
2023-06-20T09:49:31.648Z,13.20
2023-06-20T09:52:19.509Z,7.75
2023-06-20T09:55:12.730Z,7.90
2023-06-20T09:58:01.488Z,7.38
2023-06-20T10:00:50.546Z,10.10
2023-06-20T10:03:39.073Z,6.70
2023-06-20T10:06:27.477Z,10.85
2023-06-20T10:09:16.284Z,6.28
2023-06-20T10:12:04.225Z,10.77
2023-06-20T10:14:51.763Z,9.68
2023-06-20T10:17:49.370Z,7.90
2023-06-20T10:20:38.600Z,7.03
2023-06-20T10:23:33.927Z,8.73
2023-06-20T10:26:22.358Z,8.70
2023-06-20T10:29:09.985Z,7.65
2023-06-20T10:32:04.464Z,9.27
2023-06-20T10:34:53.268Z,9.38
2023-06-20T10:37:40.563Z,6.50
2023-06-20T10:40:31.025Z,8.77
2023-06-20T10:43:19.680Z,6.20
2023-06-20T10:46:06.963Z,9.60
2023-06-20T10:48:54.320Z,7.70
2023-06-20T10:51:54.233Z,10.70
2023-06-20T10:57:31.819Z,6.28
2023-06-20T11:00:20.681Z,6.45
2023-06-20T11:03:10.266Z,7.15
2023-06-20T11:05:57.792Z,9.77
2023-06-20T11:08:48.808Z,8.57
2023-06-20T11:11:39.187Z,5.88
2023-06-20T11:14:26.582Z,9.40
2023-06-20T11:17:14.580Z,7.22
2023-06-20T11:20:01.782Z,7.53
2023-06-20T11:22:49.885Z,7.53
2023-06-20T11:25:38.821Z,6.10
2023-06-20T11:28:25.981Z,6.65
2023-06-20T11:31:13.777Z,7.90
2023-06-20T11:34:11.048Z,7.25
2023-06-20T11:36:58.660Z,5.82
2023-06-20T11:39:48.221Z,6.55
2023-06-20T11:42:37.188Z,7.03
2023-06-20T11:45:27.855Z,5.00
2023-06-20T11:48:17.132Z,6.65
2023-06-20T11:51:06.359Z,6.22
2023-06-20T11:54:13.962Z,8.23
2023-06-20T11:57:01.159Z,6.28
2023-06-20T11:59:48.352Z,10.90
2023-06-20T12:02:40.369Z,7.22
2023-06-20T12:05:33.874Z,12.95
2023-06-20T12:08:21.081Z,5.70
2023-06-20T12:11:08.316Z,6.65
2023-06-20T12:13:56.262Z,8.55
2023-06-20T12:16:43.895Z,8.52
2023-06-20T12:19:31.730Z,10.25
2023-06-20T12:22:19.012Z,9.40
2023-06-20T12:25:06.335Z,9.80
2023-06-20T12:27:53.917Z,8.93
2023-06-20T12:30:41.114Z,8.68
2023-06-20T12:33:28.341Z,8.38
2023-06-20T12:36:17.085Z,9.65
2023-06-20T12:39:05.417Z,6.73
2023-06-20T12:41:52.655Z,8.80
2023-06-20T12:44:41.665Z,6.77
2023-06-20T12:47:39.454Z,12.18
2023-06-20T12:50:27.404Z,10.18
2023-06-20T12:53:14.848Z,8.55
2023-06-20T12:56:02.261Z,9.65
2023-06-20T12:58:49.505Z,11.93
2023-06-20T13:01:36.766Z,10.98
2023-06-20T13:04:24.084Z,17.85
2023-06-20T13:07:13.949Z,8.98
2023-06-20T13:10:02.383Z,12.40
2023-06-20T13:12:52.162Z,10.27
2023-06-20T13:15:39.504Z,15.70
2023-06-20T13:18:26.831Z,11.45
2023-06-20T13:21:14.229Z,12.60
2023-06-20T13:24:09.714Z,8.90
2023-06-20T13:26:58.489Z,7.13
2023-06-20T13:29:45.825Z,7.10
2023-06-20T13:32:33.101Z,7.13
2023-06-20T13:35:22.844Z,12.02
2023-06-20T13:38:10.147Z,10.30
2023-06-20T13:40:57.371Z,12.82
2023-06-20T13:43:44.674Z,9.45
2023-06-20T13:46:31.902Z,12.90
2023-06-20T13:49:20.092Z,9.95
2023-06-20T13:52:07.696Z,11.82
2023-06-20T13:54:55.147Z,11.27
2023-06-20T13:57:42.580Z,12.40
2023-06-20T14:00:30.008Z,11.32
2023-06-20T14:03:17.570Z,9.30
2023-06-20T14:06:05.456Z,9.93
2023-06-20T14:08:52.664Z,8.85
2023-06-20T14:11:39.892Z,7.57
2023-06-20T14:14:29.598Z,11.52
2023-06-20T14:17:16.974Z,9.55
2023-06-20T14:20:09.356Z,12.75
2023-06-20T14:22:57.693Z,10.48
2023-06-20T14:25:44.896Z,12.63
2023-06-20T14:28:32.164Z,10.60
2023-06-20T14:31:19.406Z,9.85
2023-06-20T14:34:06.848Z,20.05
2023-06-20T14:36:55.407Z,12.80
2023-06-20T14:39:44.675Z,12.65
2023-06-20T14:42:31.856Z,8.60
2023-06-20T14:45:19.090Z,8.77
2023-06-20T14:48:06.516Z,12.27
2023-06-20T14:50:53.969Z,11.40
2023-06-20T14:53:41.522Z,14.73
2023-06-20T14:56:28.669Z,13.02
2023-06-20T14:59:15.872Z,11.48
2023-06-20T15:02:04.532Z,11.50
2023-06-20T15:04:52.422Z,10.57
2023-06-20T15:07:39.743Z,12.18
2023-06-20T15:10:29.283Z,15.55
2023-06-20T15:13:17.382Z,12.02
2023-06-20T15:16:04.960Z,15.45
2023-06-20T15:18:52.388Z,8.32
2023-06-20T15:21:39.629Z,12.20
2023-06-20T15:24:26.847Z,15.82
2023-06-20T15:27:14.301Z,11.50
2023-06-20T15:30:01.716Z,14.93
2023-06-20T15:32:49.067Z,12.13
2023-06-20T15:35:36.346Z,11.93
2023-06-20T15:38:23.550Z,24.63
2023-06-20T15:41:10.759Z,12.75
2023-06-20T15:43:58.159Z,12.52
2023-06-20T15:49:39.612Z,14.43
2023-06-20T15:52:27.573Z,11.82
2023-06-20T15:55:14.897Z,17.58
2023-06-20T15:58:02.193Z,15.38
2023-06-20T16:00:49.711Z,18.05
2023-06-20T16:03:36.979Z,15.52
2023-06-20T16:06:24.308Z,11.48
2023-06-20T16:09:11.614Z,17.02
2023-06-20T16:11:58.851Z,13.13
2023-06-20T16:14:46.247Z,12.43
2023-06-20T16:17:33.468Z,11.80
2023-06-20T16:20:20.668Z,15.57
2023-06-20T16:23:08.170Z,14.43
2023-06-20T16:25:55.322Z,9.63
2023-06-20T16:28:42.565Z,13.63
2023-06-20T16:31:29.938Z,13.25
2023-06-20T16:34:18.654Z,16.15
2023-06-20T16:37:06.301Z,11.32
2023-06-20T16:39:53.481Z,15.25
2023-06-20T16:42:42.393Z,18.23
2023-06-20T16:45:29.617Z,16.35
2023-06-20T16:48:16.954Z,14.15
2023-06-20T16:51:04.328Z,10.60
2023-06-20T16:53:51.555Z,13.68
2023-06-20T16:56:39.008Z,11.30
2023-06-20T16:59:26.246Z,15.88
2023-06-20T17:02:13.755Z,12.30
2023-06-20T17:05:01.281Z,12.57
2023-06-20T17:07:48.570Z,15.23
2023-06-20T17:10:36.112Z,12.68
2023-06-20T17:13:23.310Z,13.63
2023-06-20T17:16:10.508Z,15.55
2023-06-20T17:18:57.704Z,14.30
2023-06-20T17:21:50.097Z,14.15
2023-06-20T17:24:43.705Z,12.23
2023-06-20T17:27:31.168Z,13.93
2023-06-20T17:30:18.672Z,15.93
2023-06-20T17:33:05.956Z,15.57
2023-06-20T17:35:53.698Z,15.73
2023-06-20T17:38:40.932Z,14.73
2023-06-20T17:41:28.118Z,14.32
2023-06-20T17:44:16.537Z,18.60
2023-06-20T17:47:04.115Z,14.35
2023-06-20T17:49:51.397Z,13.27
2023-06-20T17:52:39.198Z,12.70
2023-06-20T17:55:26.474Z,15.45
2023-06-20T17:58:13.671Z,16.10
2023-06-20T18:01:00.962Z,22.83
2023-06-20T18:03:48.448Z,24.40
2023-06-20T18:06:35.669Z,18.10
2023-06-20T18:09:22.837Z,24.67
2023-06-20T18:12:10.545Z,22.05
2023-06-20T18:14:57.708Z,20.13
2023-06-20T18:17:45.006Z,20.60
2023-06-20T18:20:32.319Z,19.27
2023-06-20T18:23:19.551Z,22.55
2023-06-20T18:26:06.859Z,21.95
2023-06-20T18:28:54.172Z,22.85
2023-06-20T18:31:41.483Z,23.27
2023-06-20T18:34:29.132Z,23.38
2023-06-20T18:37:41.944Z,22.17
2023-06-20T18:40:29.443Z,20.65
2023-06-20T18:43:29.258Z,24.02
2023-06-20T18:46:17.192Z,22.00
2023-06-20T18:49:04.501Z,21.80
2023-06-20T18:51:53.858Z,19.63
2023-06-20T18:54:41.030Z,18.77
2023-06-20T18:57:28.383Z,16.42
2023-06-20T19:00:16.057Z,18.73
2023-06-20T19:03:03.856Z,15.63
2023-06-20T19:05:51.572Z,19.20
2023-06-20T19:08:38.978Z,21.50
2023-06-20T19:11:26.230Z,19.42
2023-06-20T19:14:13.600Z,21.75
2023-06-20T19:17:01.921Z,16.88
2023-06-20T19:19:49.540Z,16.00
2023-06-20T19:22:36.846Z,17.33
2023-06-20T19:25:24.593Z,18.88
2023-06-20T19:28:12.445Z,18.48
2023-06-20T19:31:00.419Z,18.42
2023-06-20T19:33:47.822Z,19.63
2023-06-20T19:36:37.515Z,20.27
2023-06-20T19:39:24.681Z,21.13
2023-06-20T19:42:12.381Z,20.45
2023-06-20T19:45:00.344Z,19.85
2023-06-20T19:47:47.553Z,19.33
2023-06-20T19:50:34.817Z,21.50
2023-06-20T19:53:23.591Z,26.10
2023-06-20T19:56:11.396Z,18.83
2023-06-20T19:58:59.478Z,18.08
2023-06-20T20:01:47.417Z,20.33
2023-06-20T20:04:34.891Z,17.20
2023-06-20T20:07:22.362Z,17.10
2023-06-20T20:10:09.808Z,20.52
2023-06-20T20:12:57.074Z,22.38
2023-06-20T20:15:44.293Z,21.13
2023-06-20T20:18:31.595Z,18.58
2023-06-20T20:21:19.386Z,11.00
2023-06-20T20:24:07.117Z,19.33
2023-06-20T20:26:55.197Z,15.48
2023-06-20T20:29:42.411Z,18.70
2023-06-20T20:32:29.805Z,18.92
2023-06-20T20:35:17.226Z,14.65
2023-06-20T20:38:04.542Z,16.42
2023-06-20T20:40:52.701Z,16.15
2023-06-20T20:43:39.984Z,20.25
2023-06-20T20:46:27.239Z,15.27
2023-06-20T20:49:14.540Z,20.15
2023-06-20T20:52:01.986Z,18.90
2023-06-20T20:54:49.193Z,18.20
2023-06-20T20:57:36.640Z,16.52
2023-06-20T21:00:23.829Z,21.33
2023-06-20T21:03:11.246Z,23.30
2023-06-20T21:05:58.482Z,18.17
2023-06-20T21:08:45.676Z,19.60
2023-06-20T21:11:32.932Z,19.73
2023-06-20T21:14:20.214Z,16.90
2023-06-20T21:17:07.468Z,19.83
2023-06-20T21:19:54.963Z,16.88
2023-06-20T21:22:42.326Z,17.80
2023-06-20T21:25:30.909Z,17.60
2023-06-20T21:28:18.181Z,21.98
2023-06-20T21:31:05.428Z,19.58
2023-06-20T21:33:52.602Z,17.08
2023-06-20T21:36:39.899Z,18.83
2023-06-20T21:39:27.242Z,16.75
2023-06-20T21:42:14.660Z,17.35
2023-06-20T21:45:01.948Z,21.15
2023-06-20T21:47:49.686Z,19.15
2023-06-20T21:50:39.069Z,21.33
2023-06-20T21:53:26.340Z,17.80
2023-06-20T21:56:13.648Z,17.90
2023-06-20T21:59:01.028Z,22.27
2023-06-20T22:01:48.280Z,22.73
2023-06-20T22:04:35.743Z,19.83
2023-06-20T22:07:23.004Z,18.85
2023-06-20T22:10:10.535Z,19.73
2023-06-20T22:12:58.907Z,21.02
2023-06-20T22:15:46.197Z,20.75
2023-06-20T22:18:33.486Z,25.08
2023-06-20T22:21:20.746Z,26.92
2023-06-20T22:24:07.915Z,26.08
2023-06-20T22:26:55.113Z,28.27
2023-06-20T22:29:42.303Z,27.90
2023-06-20T22:32:30.847Z,22.67
2023-06-20T22:35:18.066Z,27.67
2023-06-20T22:38:05.222Z,28.92
2023-06-20T22:40:52.666Z,29.27
2023-06-20T22:43:39.906Z,26.80
2023-06-20T22:46:27.243Z,27.38
2023-06-20T22:49:14.448Z,25.05
2023-06-20T22:52:01.715Z,25.83
2023-06-20T22:54:48.913Z,33.63
2023-06-20T22:57:37.344Z,28.80
2023-06-20T23:00:24.846Z,33.45
2023-06-20T23:03:12.279Z,30.65
2023-06-20T23:05:59.543Z,30.27
2023-06-20T23:08:46.753Z,31.73
2023-06-20T23:11:34.006Z,32.40
2023-06-20T23:14:21.167Z,35.17
2023-06-20T23:17:08.508Z,31.50
2023-06-20T23:19:56.389Z,37.45
2023-06-20T23:22:43.829Z,44.85
2023-06-20T23:25:41.310Z,33.97
2023-06-20T23:28:28.439Z,34.55
2023-06-20T23:31:19.260Z,47.20
2023-06-20T23:34:07.548Z,33.55
2023-06-20T23:36:54.781Z,38.80
2023-06-20T23:39:42.349Z,38.08
2023-06-20T23:42:34.573Z,41.13
2023-06-20T23:45:47.935Z,32.50
2023-06-20T23:48:35.149Z,35.53
2023-06-20T23:51:22.489Z,39.50
2023-06-20T23:54:09.876Z,37.28
2023-06-20T23:56:57.288Z,40.08
2023-06-20T23:59:44.529Z,43.55
